logo dgac
Jueves 25 de Mayo del 2017
Buscar por aerodromo o helipuerto
Ingrese nombre de aeródromo, localidad o designador OACI:

Buscar por Fir

METAR del 25-05-2017 a las 10:00 UTC
METAR SCIE 251000Z 20003KT CAVOK 01/M02 Q1019
Viento: dirección 200 grados, velocidad 3 nudos
Visibilidad: 10 km o más,
    sin nubes bajo los 5.000 pies o bajo del MSA (Mínimo de Seguridad del Aeródromo),
    sin cumulonimbus, y sin fenómenos de tiempo significativo en el aeródromo o alrededores
Temperatura: 1 °C
Rocío: -2 °C
Humedad_relativa: 80%
Presión: 1019 hPa
METAR del 25-05-2017 a las 09:00 UTC
METAR SCIE 250900Z 14004KT CAVOK 01/M00 Q1018
Viento: dirección 140 grados, velocidad 4 nudos
Visibilidad: 10 km o más,
    sin nubes bajo los 5.000 pies o bajo del MSA (Mínimo de Seguridad del Aeródromo),
    sin cumulonimbus, y sin fenómenos de tiempo significativo en el aeródromo o alrededores
Temperatura: 1 °C
Rocío: -0 °C
Humedad_relativa: 93%
Presión: 1018 hPa
METAR del 25-05-2017 a las 08:00 UTC
METAR SCIE 250800Z 16003KT CAVOK 02/M01 Q1018
Viento: dirección 160 grados, velocidad 3 nudos
Visibilidad: 10 km o más,
    sin nubes bajo los 5.000 pies o bajo del MSA (Mínimo de Seguridad del Aeródromo),
    sin cumulonimbus, y sin fenómenos de tiempo significativo en el aeródromo o alrededores
Temperatura: 2 °C
Rocío: -1 °C
Humedad_relativa: 81%
Presión: 1018 hPa
METAR del 25-05-2017 a las 07:00 UTC
METAR SCIE 250700Z 14004KT CAVOK 02/M01 Q1018
Viento: dirección 140 grados, velocidad 4 nudos
Visibilidad: 10 km o más,
    sin nubes bajo los 5.000 pies o bajo del MSA (Mínimo de Seguridad del Aeródromo),
    sin cumulonimbus, y sin fenómenos de tiempo significativo en el aeródromo o alrededores
Temperatura: 2 °C
Rocío: -1 °C
Humedad_relativa: 81%
Presión: 1018 hPa
METAR del 25-05-2017 a las 06:00 UTC
METAR SCIE 250600Z 15006KT CAVOK 03/M00 Q1018
Viento: dirección 150 grados, velocidad 6 nudos
Visibilidad: 10 km o más,
    sin nubes bajo los 5.000 pies o bajo del MSA (Mínimo de Seguridad del Aeródromo),
    sin cumulonimbus, y sin fenómenos de tiempo significativo en el aeródromo o alrededores
Temperatura: 3 °C
Rocío: -0 °C
Humedad_relativa: 81%
Presión: 1018 hPa
METAR del 25-05-2017 a las 05:00 UTC
METAR SCIE 250500Z 13005KT CAVOK 04/00 Q1018
Viento: dirección 130 grados, velocidad 5 nudos
Visibilidad: 10 km o más,
    sin nubes bajo los 5.000 pies o bajo del MSA (Mínimo de Seguridad del Aeródromo),
    sin cumulonimbus, y sin fenómenos de tiempo significativo en el aeródromo o alrededores
Temperatura: 4 °C
Rocío: 0 °C
Humedad_relativa: 75%
Presión: 1018 hPa
METAR del 25-05-2017 a las 04:00 UTC
METAR SCIE 250400Z 20002KT CAVOK 04/00 Q1018
Viento: dirección 200 grados, velocidad 2 nudos
Visibilidad: 10 km o más,
    sin nubes bajo los 5.000 pies o bajo del MSA (Mínimo de Seguridad del Aeródromo),
    sin cumulonimbus, y sin fenómenos de tiempo significativo en el aeródromo o alrededores
Temperatura: 4 °C
Rocío: 0 °C
Humedad_relativa: 75%
Presión: 1018 hPa
METAR del 25-05-2017 a las 03:00 UTC
METAR SCIE 250300Z 11002KT CAVOK 05/00 Q1017
Viento: dirección 110 grados, velocidad 2 nudos
Visibilidad: 10 km o más,
    sin nubes bajo los 5.000 pies o bajo del MSA (Mínimo de Seguridad del Aeródromo),
    sin cumulonimbus, y sin fenómenos de tiempo significativo en el aeródromo o alrededores
Temperatura: 5 °C
Rocío: 0 °C
Humedad_relativa: 70%
Presión: 1017 hPa
METAR del 25-05-2017 a las 02:00 UTC
METAR SCIE 250200Z 13004KT CAVOK 06/00 Q1017
Viento: dirección 130 grados, velocidad 4 nudos
Visibilidad: 10 km o más,
    sin nubes bajo los 5.000 pies o bajo del MSA (Mínimo de Seguridad del Aeródromo),
    sin cumulonimbus, y sin fenómenos de tiempo significativo en el aeródromo o alrededores
Temperatura: 6 °C
Rocío: 0 °C
Humedad_relativa: 65%
Presión: 1017 hPa
METAR del 25-05-2017 a las 01:00 UTC
METAR SCIE 250100Z 13004KT CAVOK 07/01 Q1016
Viento: dirección 130 grados, velocidad 4 nudos
Visibilidad: 10 km o más,
    sin nubes bajo los 5.000 pies o bajo del MSA (Mínimo de Seguridad del Aeródromo),
    sin cumulonimbus, y sin fenómenos de tiempo significativo en el aeródromo o alrededores
Temperatura: 7 °C
Rocío: 1 °C
Humedad_relativa: 66%
Presión: 1016 hPa